Time;durP1;ratioP1;P1;durP2;ratioP2;P2;SDS_P1;SDS_P2;PMS_P1;PMS_P2;Temp;Humidity;BMP_temperature;BMP_pressure;BME280_temperature;BME280_humidity;BME280_pressure;Samples;Min_cycle;Max_cycle;Signal;HPM_P1;HPM_P2
2021/11/14 00:00:09;;;;;;;142.82;65.05;;;9.40;99.90;;;;;;4128066;28;20034;-79
2021/11/14 00:02:10;;;;;;;158.80;69.50;;;9.40;99.90;;;;;;4115336;28;20054;-78
2021/11/14 00:04:11;;;;;;;220.07;110.75;;;9.40;99.90;;;;;;4127378;28;20037;-79
2021/11/14 00:06:12;;;;;;;168.82;82.20;;;9.40;99.90;;;;;;4122056;28;20030;-78
2021/11/14 00:08:15;;;;;;;174.65;81.75;;;9.40;99.90;;;;;;4129062;28;20113;-78
2021/11/14 00:10:15;;;;;;;163.15;75.82;;;9.40;99.90;;;;;;4128624;28;20122;-79
2021/11/14 00:12:16;;;;;;;180.43;78.28;;;9.50;99.90;;;;;;4143036;28;20033;-78
2021/11/14 00:14:17;;;;;;;164.02;74.63;;;9.40;99.90;;;;;;4128817;28;20084;-79
2021/11/14 00:16:21;;;;;;;171.43;76.18;;;9.50;99.90;;;;;;4124124;28;20081;-79
2021/11/14 00:18:22;;;;;;;159.13;73.32;;;9.50;99.90;;;;;;4120823;28;20097;-78
2021/11/14 00:20:24;;;;;;;151.95;70.45;;;9.50;99.90;;;;;;4129664;28;20062;-79
2021/11/14 00:22:25;;;;;;;139.57;65.22;;;9.40;99.90;;;;;;4129924;28;20145;-78
2021/11/14 00:24:26;;;;;;;158.52;67.93;;;9.40;99.90;;;;;;4123828;28;20035;-78
2021/11/14 00:26:27;;;;;;;134.38;69.88;;;9.40;99.90;;;;;;4120347;28;20056;-78
2021/11/14 00:28:27;;;;;;;147.35;69.38;;;9.40;99.90;;;;;;4130568;28;20034;-78
2021/11/14 00:30:28;;;;;;;146.50;67.03;;;9.40;99.90;;;;;;4124991;28;20030;-79
2021/11/14 00:32:29;;;;;;;145.88;68.35;;;9.50;99.90;;;;;;4120765;28;20122;-79
2021/11/14 00:34:29;;;;;;;147.50;66.15;;;9.40;99.90;;;;;;4126541;28;20034;-79
2021/11/14 00:36:37;;;;;;;141.05;68.10;;;9.40;99.90;;;;;;4126326;28;20037;-78
2021/11/14 00:38:38;;;;;;;139.63;65.97;;;9.40;99.90;;;;;;4120924;28;20113;-79
2021/11/14 00:40:39;;;;;;;151.30;68.88;;;9.50;99.90;;;;;;4128586;28;20395;-78
2021/11/14 00:42:40;;;;;;;148.02;67.47;;;9.40;99.90;;;;;;4127712;28;20109;-79
2021/11/14 00:44:41;;;;;;;137.30;66.05;;;9.40;99.90;;;;;;4127909;28;20042;-79
2021/11/14 00:46:41;;;;;;;142.75;72.45;;;9.40;99.90;;;;;;4127892;28;20035;-79
2021/11/14 00:48:42;;;;;;;166.65;81.35;;;9.50;99.90;;;;;;4118539;28;20027;-78
2021/11/14 00:50:44;;;;;;;163.38;74.43;;;9.50;99.90;;;;;;4124078;28;20035;-78
2021/11/14 00:52:45;;;;;;;158.45;74.03;;;9.40;99.90;;;;;;4127029;28;20042;-78
2021/11/14 00:54:46;;;;;;;139.23;66.68;;;9.40;99.90;;;;;;4127952;28;20045;-78
2021/11/14 00:56:47;;;;;;;143.95;68.00;;;9.40;99.90;;;;;;4139272;28;20068;-79
2021/11/14 00:58:47;;;;;;;138.98;62.90;;;9.40;99.90;;;;;;4127694;28;20799;-78
2021/11/14 01:00:48;;;;;;;131.93;57.70;;;9.40;99.90;;;;;;4120425;28;20038;-78
2021/11/14 01:02:49;;;;;;;134.10;55.55;;;9.40;99.90;;;;;;4129211;28;20085;-78
2021/11/14 01:04:50;;;;;;;125.35;54.20;;;9.40;99.90;;;;;;4115331;28;20033;-78
2021/11/14 01:06:50;;;;;;;128.63;54.80;;;9.40;99.90;;;;;;4127190;28;20038;-79
2021/11/14 01:08:51;;;;;;;127.43;53.45;;;9.40;99.90;;;;;;4121889;28;20517;-78
2021/11/14 01:10:52;;;;;;;135.73;53.97;;;9.40;99.90;;;;;;4128189;28;20034;-78
2021/11/14 01:12:53;;;;;;;137.15;53.75;;;9.40;99.90;;;;;;4131375;28;20093;-78
2021/11/14 01:14:54;;;;;;;131.57;56.78;;;9.40;99.90;;;;;;4131104;28;20030;-79
2021/11/14 01:16:55;;;;;;;149.35;57.97;;;9.40;99.90;;;;;;4128744;28;20121;-79
2021/11/14 01:18:55;;;;;;;136.15;55.20;;;9.40;99.90;;;;;;4130456;28;20375;-78
2021/11/14 01:20:59;;;;;;;150.85;59.70;;;9.40;99.90;;;;;;4123895;28;20498;-78
2021/11/14 01:23:02;;;;;;;145.60;54.80;;;9.40;99.90;;;;;;4129941;28;20084;-78
2021/11/14 01:25:04;;;;;;;135.82;57.17;;;9.40;99.90;;;;;;4128436;28;20046;-78
2021/11/14 01:27:05;;;;;;;153.43;59.80;;;9.40;99.90;;;;;;4129860;28;20042;-79
2021/11/14 01:29:06;;;;;;;156.98;61.75;;;9.40;99.90;;;;;;4129027;28;20141;-78
2021/11/14 01:31:07;;;;;;;172.23;63.03;;;9.40;99.90;;;;;;4124256;28;20043;-78
2021/11/14 01:33:09;;;;;;;154.38;58.95;;;9.40;99.90;;;;;;4129839;28;20061;-78
2021/11/14 01:35:12;;;;;;;160.77;60.03;;;9.40;99.90;;;;;;4126142;28;20503;-79
2021/11/14 01:37:13;;;;;;;178.57;63.22;;;9.40;99.90;;;;;;4128341;28;20025;-78
2021/11/14 01:39:14;;;;;;;178.95;61.47;;;9.40;99.90;;;;;;4119554;28;20122;-78
2021/11/14 01:41:15;;;;;;;172.27;60.55;;;9.40;99.90;;;;;;4128124;28;20027;-78
2021/11/14 01:43:19;;;;;;;166.27;61.22;;;9.40;99.90;;;;;;4123241;28;20046;-78
2021/11/14 01:45:21;;;;;;;177.35;62.58;;;9.40;99.90;;;;;;4125627;28;20033;-77
2021/11/14 01:47:22;;;;;;;179.88;62.00;;;9.40;99.90;;;;;;4121671;28;20040;-78
2021/11/14 01:49:24;;;;;;;177.20;62.13;;;9.40;99.90;;;;;;4129785;28;20497;-79
2021/11/14 01:51:25;;;;;;;183.88;63.45;;;9.30;99.90;;;;;;4129903;28;20106;-78
2021/11/14 01:53:26;;;;;;;171.68;61.13;;;9.30;99.90;;;;;;4124245;28;20434;-78
2021/11/14 01:55:29;;;;;;;180.00;63.67;;;9.30;99.90;;;;;;4116666;28;20034;-78
2021/11/14 01:57:30;;;;;;;177.82;58.92;;;9.30;99.90;;;;;;4129162;28;20497;-78
2021/11/14 01:59:34;;;;;;;163.38;59.60;;;9.30;99.90;;;;;;4130108;28;20030;-78
2021/11/14 02:01:36;;;;;;;170.88;58.40;;;9.30;99.90;;;;;;4125826;28;20031;-78
2021/11/14 02:03:41;;;;;;;160.70;63.28;;;9.30;99.90;;;;;;4125338;28;20037;-78
2021/11/14 02:05:42;;;;;;;176.35;59.38;;;9.30;99.90;;;;;;4123954;28;20047;-79
2021/11/14 02:07:43;;;;;;;177.23;60.38;;;9.30;99.90;;;;;;4129153;28;20038;-78
2021/11/14 02:09:44;;;;;;;170.35;59.00;;;9.20;99.90;;;;;;4129766;28;20392;-78
2021/11/14 02:11:44;;;;;;;166.30;57.58;;;9.30;99.90;;;;;;4127436;28;20386;-78
2021/11/14 02:13:48;;;;;;;163.20;60.35;;;9.30;99.90;;;;;;4131629;28;20406;-78
2021/11/14 02:15:48;;;;;;;;;;;9.30;99.90;;;;;;4132997;28;20038;-78
2021/11/14 02:17:49;;;;;;;168.57;58.38;;;9.30;99.90;;;;;;4130943;28;19937;-78
2021/11/14 02:19:52;;;;;;;164.95;60.58;;;9.30;99.90;;;;;;4130155;28;20038;-79
2021/11/14 02:21:53;;;;;;;180.40;61.63;;;9.20;99.90;;;;;;4129236;28;20033;-77
2021/11/14 02:23:55;;;;;;;173.27;57.90;;;9.30;99.90;;;;;;4131283;28;20121;-78
2021/11/14 02:25:56;;;;;;;184.15;61.15;;;9.20;99.90;;;;;;4124878;28;20094;-78
2021/11/14 02:27:56;;;;;;;158.73;58.60;;;9.20;99.90;;;;;;4129017;28;20478;-77
2021/11/14 02:29:58;;;;;;;179.90;60.40;;;9.20;99.90;;;;;;4127982;28;20046;-77
2021/11/14 02:31:59;;;;;;;175.27;60.25;;;9.30;99.90;;;;;;4122283;28;20501;-78
2021/11/14 02:34:00;;;;;;;170.13;58.08;;;9.30;99.90;;;;;;4129962;28;20042;-77
2021/11/14 02:36:05;;;;;;;168.10;64.07;;;9.20;99.90;;;;;;4131129;28;20130;-78
2021/11/14 02:38:07;;;;;;;177.90;61.58;;;9.20;99.90;;;;;;4129335;28;20518;-78
2021/11/14 02:40:09;;;;;;;178.88;57.10;;;9.20;99.90;;;;;;4130139;28;20505;-80
2021/11/14 02:42:10;;;;;;;164.00;58.45;;;9.20;99.90;;;;;;4128317;28;20123;-78
2021/11/14 02:44:11;;;;;;;172.38;57.08;;;9.20;99.90;;;;;;4128632;28;20083;-78
2021/11/14 02:46:13;;;;;;;161.32;56.63;;;9.20;99.90;;;;;;4144485;28;20435;-78
2021/11/14 02:48:15;;;;;;;169.15;58.40;;;9.20;99.90;;;;;;4144480;28;20038;-78
2021/11/14 02:50:16;;;;;;;178.80;57.33;;;9.20;99.90;;;;;;4125142;28;20050;-78
2021/11/14 02:52:17;;;;;;;174.20;59.97;;;9.20;99.90;;;;;;4130771;28;20038;-78
2021/11/14 02:54:18;;;;;;;161.98;56.60;;;9.30;99.90;;;;;;4130986;28;20058;-78
2021/11/14 02:56:19;;;;;;;167.57;56.13;;;9.30;99.90;;;;;;4129125;28;20037;-78
2021/11/14 02:58:21;;;;;;;160.63;56.65;;;9.20;99.90;;;;;;4130694;28;20053;-79
2021/11/14 03:00:27;;;;;;;167.13;56.70;;;9.20;99.90;;;;;;4123668;28;20125;-78
2021/11/14 03:02:27;;;;;;;148.63;55.33;;;9.20;99.90;;;;;;4130351;28;20054;-78
2021/11/14 03:04:30;;;;;;;155.80;52.38;;;9.20;99.90;;;;;;4121965;28;20042;-77
2021/11/14 03:06:32;;;;;;;149.00;54.78;;;9.20;99.90;;;;;;4130697;28;20505;-78
2021/11/14 03:08:33;;;;;;;154.55;54.35;;;9.20;99.90;;;;;;4145904;28;20078;-78
2021/11/14 03:10:34;;;;;;;158.45;53.17;;;9.20;99.90;;;;;;4126212;28;20026;-79
2021/11/14 03:12:35;;;;;;;156.60;52.63;;;9.20;99.90;;;;;;4129649;28;20030;-78
2021/11/14 03:14:36;;;;;;;148.98;52.22;;;9.20;99.90;;;;;;4130899;28;20053;-78
2021/11/14 03:16:38;;;;;;;138.48;53.38;;;9.20;99.90;;;;;;4122022;28;20117;-79
2021/11/14 03:18:38;;;;;;;147.60;52.42;;;9.20;99.90;;;;;;4130640;28;20382;-79
2021/11/14 03:20:47;;;;;;;141.18;55.00;;;9.20;99.90;;;;;;4130456;28;20034;-79
2021/11/14 03:22:48;;;;;;;145.00;54.13;;;9.20;99.90;;;;;;4129540;28;20870;-79
2021/11/14 03:24:49;;;;;;;146.55;55.80;;;9.10;99.90;;;;;;4120659;28;20070;-78
2021/11/14 03:26:49;;;;;;;140.70;51.38;;;9.10;99.90;;;;;;4128466;28;20030;-79
2021/11/14 03:28:50;;;;;;;136.88;51.05;;;9.10;99.90;;;;;;4128131;28;20767;-79
2021/11/14 03:30:53;;;;;;;143.10;51.85;;;9.10;99.90;;;;;;4127243;28;20109;-79
2021/11/14 03:32:54;;;;;;;138.48;51.97;;;9.10;99.90;;;;;;4127169;28;20043;-79
2021/11/14 03:34:55;;;;;;;140.60;50.20;;;9.10;99.90;;;;;;4130847;28;20177;-78
2021/11/14 03:36:56;;;;;;;138.75;50.80;;;9.00;99.90;;;;;;4126381;28;20057;-79
2021/11/14 03:38:59;;;;;;;149.48;53.40;;;9.00;99.90;;;;;;4126369;28;20482;-78
2021/11/14 03:41:01;;;;;;;135.68;52.00;;;9.00;99.90;;;;;;4124398;28;20121;-78
2021/11/14 03:43:03;;;;;;;135.57;48.72;;;9.00;99.90;;;;;;4129035;28;20351;-78
2021/11/14 03:45:05;;;;;;;132.38;49.97;;;9.00;99.90;;;;;;4127240;28;20046;-79
2021/11/14 03:47:07;;;;;;;142.88;50.25;;;9.00;99.90;;;;;;4125632;28;20514;-78
2021/11/14 03:49:07;;;;;;;141.98;52.33;;;9.00;99.90;;;;;;4128752;28;20026;-79
2021/11/14 03:51:11;;;;;;;132.13;48.50;;;9.00;99.90;;;;;;4124209;28;20049;-78
2021/11/14 03:53:13;;;;;;;148.20;51.15;;;9.00;99.90;;;;;;4127583;28;20137;-78
2021/11/14 03:55:14;;;;;;;134.02;53.95;;;9.00;99.90;;;;;;4128492;28;20050;-78
2021/11/14 03:57:15;;;;;;;135.52;50.58;;;9.00;99.90;;;;;;4128722;28;20134;-78
2021/11/14 03:59:16;;;;;;;134.80;51.83;;;9.00;99.90;;;;;;4129005;28;20105;-79
2021/11/14 04:01:21;;;;;;;142.68;51.97;;;9.00;99.90;;;;;;4129699;28;20035;-78
2021/11/14 04:03:23;;;;;;;124.00;51.00;;;8.90;99.90;;;;;;4128405;28;20045;-79
2021/11/14 04:05:28;;;;;;;145.13;52.47;;;9.00;99.90;;;;;;4129130;28;20042;-78
2021/11/14 04:07:29;;;;;;;143.75;52.75;;;9.00;99.90;;;;;;4128966;28;20034;-78
2021/11/14 04:09:30;;;;;;;139.63;52.85;;;9.00;99.90;;;;;;4129768;28;20390;-78
2021/11/14 04:11:31;;;;;;;147.18;52.33;;;8.90;99.90;;;;;;4128464;28;20117;-78
2021/11/14 04:13:34;;;;;;;150.57;55.67;;;8.90;99.90;;;;;;4128677;28;20030;-78
2021/11/14 04:15:36;;;;;;;138.38;51.22;;;8.90;99.90;;;;;;4122154;28;20037;-77
2021/11/14 04:17:38;;;;;;;138.30;51.55;;;8.90;99.90;;;;;;4128381;28;20073;-76
2021/11/14 04:19:39;;;;;;;144.35;57.20;;;8.90;99.90;;;;;;4129292;28;20030;-77
2021/11/14 04:21:39;;;;;;;154.05;54.25;;;8.90;99.90;;;;;;4128064;28;20490;-78
2021/11/14 04:23:40;;;;;;;150.07;54.47;;;8.90;99.90;;;;;;4123642;28;20129;-78
2021/11/14 04:25:41;;;;;;;159.60;55.28;;;8.90;99.90;;;;;;4127538;28;20034;-77
2021/11/14 04:27:41;;;;;;;142.15;53.35;;;8.90;99.90;;;;;;4124921;28;20038;-77
2021/11/14 04:29:42;;;;;;;158.10;55.78;;;8.90;99.90;;;;;;4122656;28;20055;-77
2021/11/14 04:31:42;;;;;;;161.63;55.67;;;8.90;99.90;;;;;;4128444;28;20045;-77
2021/11/14 04:33:43;;;;;;;146.88;54.70;;;8.90;99.90;;;;;;4121054;28;20493;-77
2021/11/14 04:35:46;;;;;;;152.23;57.50;;;8.90;99.90;;;;;;4124227;28;20034;-76
2021/11/14 04:37:51;;;;;;;157.73;56.38;;;8.90;99.90;;;;;;4127029;28;20035;-78
2021/11/14 04:39:51;;;;;;;140.73;55.95;;;8.90;99.90;;;;;;4126536;28;20039;-78
2021/11/14 04:41:52;;;;;;;165.15;56.00;;;8.90;99.90;;;;;;4122318;28;20051;-78
2021/11/14 04:43:53;;;;;;;162.38;57.42;;;8.90;99.90;;;;;;4126584;28;20053;-78
2021/11/14 04:45:53;;;;;;;147.60;55.60;;;8.90;99.90;;;;;;4127671;28;20060;-77
2021/11/14 04:47:54;;;;;;;163.40;56.70;;;8.90;99.90;;;;;;4127486;28;20093;-77
2021/11/14 04:49:55;;;;;;;152.10;53.15;;;8.90;99.90;;;;;;4128535;28;20030;-78
2021/11/14 04:51:56;;;;;;;157.65;55.63;;;8.90;99.90;;;;;;4127403;28;20441;-78
2021/11/14 04:53:56;;;;;;;153.10;55.90;;;8.90;99.90;;;;;;4116213;28;20030;-78
2021/11/14 04:55:57;;;;;;;163.65;56.92;;;8.90;99.90;;;;;;4126267;28;20046;-78
2021/11/14 04:57:58;;;;;;;155.85;57.53;;;8.90;99.90;;;;;;4117378;28;20089;-78
2021/11/14 04:59:59;;;;;;;161.25;56.72;;;8.90;99.90;;;;;;4128554;28;20331;-77
2021/11/14 05:02:00;;;;;;;150.20;54.33;;;8.90;99.90;;;;;;4127292;28;20132;-77
2021/11/14 05:04:01;;;;;;;160.85;56.53;;;8.90;99.90;;;;;;4121688;28;20039;-78
2021/11/14 05:06:02;;;;;;;159.30;54.95;;;8.90;99.90;;;;;;4119222;28;20035;-78
2021/11/14 05:08:05;;;;;;;159.65;54.42;;;8.90;99.90;;;;;;4128045;28;20119;-78
2021/11/14 05:10:06;;;;;;;173.00;60.60;;;8.90;99.90;;;;;;4129394;28;20097;-77
2021/11/14 05:12:08;;;;;;;164.32;58.97;;;8.90;99.90;;;;;;4124849;28;20166;-78
2021/11/14 05:14:08;;;;;;;156.57;57.88;;;8.90;99.90;;;;;;4127905;28;20486;-77
2021/11/14 05:16:09;;;;;;;163.15;56.58;;;8.90;99.90;;;;;;4127811;28;20045;-77
2021/11/14 05:18:10;;;;;;;162.80;57.33;;;8.90;99.90;;;;;;4126065;28;20030;-78
2021/11/14 05:20:11;;;;;;;153.07;55.92;;;8.90;99.90;;;;;;4120792;28;20047;-78
2021/11/14 05:22:12;;;;;;;158.85;56.50;;;8.90;99.90;;;;;;4128671;28;20043;-79
2021/11/14 05:24:13;;;;;;;166.88;58.85;;;8.90;99.90;;;;;;4125459;28;20395;-78
2021/11/14 05:26:15;;;;;;;169.38;59.88;;;8.90;99.90;;;;;;4124416;28;20050;-79
2021/11/14 05:28:16;;;;;;;163.32;55.95;;;8.90;99.90;;;;;;4127712;28;20039;-77
2021/11/14 05:30:16;;;;;;;158.27;55.97;;;8.90;99.90;;;;;;4110259;28;20041;-77
2021/11/14 05:32:17;;;;;;;161.20;55.33;;;8.90;99.90;;;;;;4143621;28;20034;-77
2021/11/14 05:34:18;;;;;;;152.88;55.08;;;8.90;99.90;;;;;;4125588;28;20394;-79
2021/11/14 05:36:19;;;;;;;155.82;56.53;;;8.90;99.90;;;;;;4127714;28;20034;-77
2021/11/14 05:38:20;;;;;;;155.45;52.35;;;8.90;99.90;;;;;;4127309;28;20093;-77
2021/11/14 05:40:20;;;;;;;153.85;53.63;;;8.90;99.90;;;;;;4127995;28;20038;-77
2021/11/14 05:42:22;;;;;;;157.80;56.15;;;8.90;99.90;;;;;;4125670;28;20410;-78
2021/11/14 05:44:23;;;;;;;152.00;54.75;;;8.90;99.90;;;;;;4129208;28;20030;-78
2021/11/14 05:46:25;;;;;;;152.27;54.22;;;8.90;99.90;;;;;;4130389;28;20201;-78
2021/11/14 05:48:27;;;;;;;147.90;52.55;;;8.90;99.90;;;;;;4122564;28;20107;-78
2021/11/14 05:50:28;;;;;;;165.55;56.55;;;8.90;99.90;;;;;;4123572;28;20034;-78
2021/11/14 05:52:28;;;;;;;149.23;52.17;;;8.90;99.90;;;;;;4123236;28;20061;-79
2021/11/14 05:54:29;;;;;;;155.60;53.58;;;8.90;99.90;;;;;;4120851;28;20560;-78
2021/11/14 05:56:30;;;;;;;158.02;51.45;;;8.80;99.90;;;;;;4127991;28;20138;-77
2021/11/14 06:01:09;;;;;;;146.18;52.50;;;8.90;99.90;;;;;;4130041;28;20054;-78
2021/11/14 06:05:34;;;;;;;151.13;54.20;;;8.90;99.90;;;;;;4128306;28;20132;-79
2021/11/14 06:07:35;;;;;;;144.85;50.78;;;8.90;99.90;;;;;;4129646;28;20403;-78
2021/11/14 06:09:35;;;;;;;148.32;53.00;;;9.00;99.90;;;;;;4129241;28;20119;-78
2021/11/14 06:11:37;;;;;;;150.38;51.97;;;9.00;99.90;;;;;;4117561;28;20122;-78
2021/11/14 06:13:38;;;;;;;154.98;55.13;;;9.00;99.90;;;;;;4129822;28;20053;-78
2021/11/14 06:15:38;;;;;;;147.68;53.90;;;9.00;99.90;;;;;;4119328;28;20034;-77
2021/11/14 06:17:39;;;;;;;157.73;54.67;;;9.00;99.90;;;;;;4145812;28;20030;-77
2021/11/14 06:19:39;;;;;;;153.43;54.15;;;9.00;99.90;;;;;;4130787;28;20089;-77
2021/11/14 06:21:40;;;;;;;166.88;58.10;;;9.00;99.90;;;;;;4127323;28;20030;-78
2021/11/14 06:23:41;;;;;;;151.55;51.30;;;9.00;99.90;;;;;;4129947;28;20133;-78
2021/11/14 06:25:41;;;;;;;161.43;55.50;;;9.00;99.90;;;;;;4128600;28;20034;-78
2021/11/14 06:27:42;;;;;;;151.88;52.30;;;9.00;99.90;;;;;;4127884;28;20030;-77
2021/11/14 06:29:43;;;;;;;164.40;56.05;;;9.00;99.90;;;;;;4129221;28;20101;-77
2021/11/14 06:31:43;;;;;;;164.18;58.00;;;9.00;99.90;;;;;;4129841;28;20034;-77
2021/11/14 06:33:44;;;;;;;154.48;55.20;;;9.00;99.90;;;;;;4123224;28;20034;-78
2021/11/14 06:35:45;;;;;;;156.13;54.88;;;9.00;99.90;;;;;;4127957;28;20117;-77
2021/11/14 06:37:46;;;;;;;165.50;55.88;;;9.00;99.90;;;;;;4127761;28;20109;-78
2021/11/14 06:39:47;;;;;;;149.63;53.10;;;9.00;99.90;;;;;;4130350;28;20514;-78
2021/11/14 06:41:47;;;;;;;160.85;53.03;;;9.00;99.90;;;;;;4123486;28;20054;-78
2021/11/14 06:43:48;;;;;;;165.88;56.13;;;9.00;99.90;;;;;;4127804;28;20204;-78
2021/11/14 06:45:49;;;;;;;164.85;54.50;;;9.10;99.90;;;;;;4131705;28;20035;-77
2021/11/14 06:47:50;;;;;;;174.50;54.85;;;9.00;99.90;;;;;;4128491;28;20517;-77
2021/11/14 06:49:52;;;;;;;184.35;56.58;;;9.10;99.90;;;;;;4129059;28;20181;-77
2021/11/14 06:51:53;;;;;;;175.48;55.85;;;9.10;99.90;;;;;;4129284;28;20030;-78
2021/11/14 06:53:54;;;;;;;193.93;62.22;;;9.00;99.90;;;;;;4129953;28;20411;-77
2021/11/14 06:55:56;;;;;;;181.75;57.75;;;9.10;99.90;;;;;;4127925;28;20135;-78
2021/11/14 06:57:57;;;;;;;187.23;59.67;;;9.10;99.90;;;;;;4128081;28;20437;-78
2021/11/14 06:59:58;;;;;;;195.95;60.25;;;9.10;99.90;;;;;;4127737;28;20064;-78
2021/11/14 07:01:58;;;;;;;190.75;60.40;;;9.10;99.90;;;;;;4129104;28;20493;-78
2021/11/14 07:03:59;;;;;;;196.68;62.83;;;9.10;99.90;;;;;;4129890;28;20411;-78
2021/11/14 07:06:03;;;;;;;181.23;57.72;;;9.20;99.90;;;;;;4129621;28;20050;-78
2021/11/14 07:08:04;;;;;;;198.95;61.83;;;9.20;99.90;;;;;;4126844;28;20034;-78
2021/11/14 07:10:07;;;;;;;197.73;64.03;;;9.20;99.90;;;;;;4130392;28;20375;-78
2021/11/14 07:12:08;;;;;;;206.07;64.32;;;9.20;99.90;;;;;;4129924;28;20407;-78
2021/11/14 07:14:09;;;;;;;196.38;66.10;;;9.20;99.90;;;;;;4128269;28;20038;-78
2021/11/14 07:16:09;;;;;;;189.35;62.53;;;9.20;99.90;;;;;;4130326;28;20046;-78
2021/11/14 07:18:10;;;;;;;197.63;61.17;;;9.20;99.90;;;;;;4112408;28;20039;-78
2021/11/14 07:20:13;;;;;;;197.50;65.00;;;9.20;99.90;;;;;;4127136;28;20030;-78
2021/11/14 07:22:13;;;;;;;197.38;62.53;;;9.20;99.90;;;;;;4128381;28;20026;-78
2021/11/14 07:24:15;;;;;;;198.82;61.42;;;9.30;99.90;;;;;;4130465;28;20045;-78
2021/11/14 07:26:16;;;;;;;202.85;60.58;;;9.30;99.90;;;;;;4130486;28;20035;-77
2021/11/14 07:28:16;;;;;;;194.27;60.20;;;9.30;99.90;;;;;;4122311;28;20041;-76
2021/11/14 07:30:18;;;;;;;219.65;64.63;;;9.30;99.90;;;;;;4124387;28;20141;-77
2021/11/14 07:32:20;;;;;;;189.02;58.33;;;9.30;99.90;;;;;;4124787;28;20092;-77
2021/11/14 07:34:20;;;;;;;194.43;59.75;;;9.30;99.90;;;;;;4128395;28;20085;-78
2021/11/14 07:36:21;;;;;;;187.25;59.75;;;9.30;99.90;;;;;;4128803;28;20058;-78
2021/11/14 07:38:22;;;;;;;179.38;61.95;;;9.30;99.90;;;;;;4129033;28;20041;-78
2021/11/14 07:40:24;;;;;;;189.88;61.20;;;9.30;99.90;;;;;;4123256;28;20039;-78
2021/11/14 07:42:24;;;;;;;183.75;57.13;;;9.30;99.90;;;;;;4143037;28;20026;-79
2021/11/14 07:44:27;;;;;;;181.90;60.65;;;9.30;99.90;;;;;;4114794;28;20041;-79
2021/11/14 07:46:28;;;;;;;162.35;55.33;;;9.30;99.90;;;;;;4127002;28;20402;-78
2021/11/14 07:48:29;;;;;;;162.18;55.10;;;9.30;99.90;;;;;;4125072;28;20038;-78
2021/11/14 07:50:30;;;;;;;152.80;53.58;;;9.40;99.90;;;;;;4127677;28;20030;-78
2021/11/14 07:52:32;;;;;;;156.98;56.05;;;9.30;99.90;;;;;;4135002;28;20057;-78
2021/11/14 07:54:32;;;;;;;155.30;52.80;;;9.30;99.90;;;;;;4126975;28;20038;-78
2021/11/14 07:56:33;;;;;;;143.57;50.92;;;9.40;99.90;;;;;;4128118;28;20039;-78
2021/11/14 07:58:34;;;;;;;157.65;51.78;;;9.40;99.90;;;;;;4127912;28;20039;-78
2021/11/14 08:00:37;;;;;;;148.85;52.53;;;9.40;99.90;;;;;;4129657;28;20438;-77
2021/11/14 08:02:39;;;;;;;130.13;49.60;;;9.40;99.90;;;;;;4126195;28;20034;-78
2021/11/14 08:04:39;;;;;;;141.48;48.33;;;9.40;99.90;;;;;;4118233;28;20057;-78
2021/11/14 08:06:40;;;;;;;118.57;44.58;;;9.50;99.90;;;;;;4128409;28;20033;-78
2021/11/14 08:08:41;;;;;;;110.57;42.42;;;9.50;99.90;;;;;;4129195;28;20195;-78
2021/11/14 08:10:42;;;;;;;108.85;40.13;;;9.50;99.90;;;;;;4118519;28;20034;-78
2021/11/14 08:12:44;;;;;;;105.50;41.60;;;9.50;99.90;;;;;;4127613;28;20433;-78
2021/11/14 08:14:44;;;;;;;100.00;40.00;;;9.50;99.90;;;;;;4143966;28;20085;-79
2021/11/14 08:16:45;;;;;;;89.82;37.53;;;9.50;99.90;;;;;;4126310;28;20466;-78
2021/11/14 08:18:45;;;;;;;93.38;38.63;;;9.50;99.90;;;;;;4122227;28;20117;-78
2021/11/14 08:20:46;;;;;;;84.07;37.30;;;9.50;99.90;;;;;;4123851;28;20065;-78
2021/11/14 08:22:48;;;;;;;85.22;36.15;;;9.50;99.90;;;;;;4123425;28;20387;-78
2021/11/14 08:24:48;;;;;;;91.03;37.63;;;9.50;99.90;;;;;;4128954;28;20034;-78
2021/11/14 08:26:49;;;;;;;79.22;36.80;;;9.50;99.90;;;;;;4133723;28;20802;-77
2021/11/14 08:28:50;;;;;;;85.38;35.40;;;9.50;99.90;;;;;;4126380;28;20036;-79
2021/11/14 08:30:51;;;;;;;76.13;34.67;;;9.50;99.90;;;;;;4128669;28;20044;-77
2021/11/14 08:32:52;;;;;;;84.13;36.88;;;9.60;99.90;;;;;;4126468;28;20041;-79
2021/11/14 08:34:53;;;;;;;80.32;36.75;;;9.50;99.90;;;;;;4120775;28;20209;-78
2021/11/14 08:36:54;;;;;;;77.20;34.20;;;9.50;99.90;;;;;;4125192;28;20540;-78
2021/11/14 08:38:55;;;;;;;76.18;36.03;;;9.50;99.90;;;;;;4125948;28;20034;-78
2021/11/14 08:40:56;;;;;;;74.65;35.78;;;9.50;99.90;;;;;;4128209;28;20030;-78
2021/11/14 08:42:58;;;;;;;70.63;35.83;;;9.60;99.90;;;;;;4129753;28;20038;-78
2021/11/14 08:44:59;;;;;;;70.95;34.15;;;9.60;99.90;;;;;;4126289;28;20235;-78
2021/11/14 08:47:00;;;;;;;78.68;34.80;;;9.60;99.90;;;;;;4115226;28;20035;-78
2021/11/14 08:49:01;;;;;;;66.75;33.25;;;9.60;99.90;;;;;;4143242;28;20440;-77
2021/11/14 08:51:02;;;;;;;70.10;33.03;;;9.60;99.90;;;;;;4115125;28;20486;-78
2021/11/14 08:53:03;;;;;;;62.00;32.47;;;9.60;99.90;;;;;;4125986;28;20031;-77
2021/11/14 08:55:04;;;;;;;64.00;31.30;;;9.70;99.90;;;;;;4121849;28;20587;-77
2021/11/14 08:57:06;;;;;;;59.38;30.45;;;9.70;99.90;;;;;;4123346;28;20352;-78
2021/11/14 08:59:08;;;;;;;62.40;29.88;;;9.80;99.90;;;;;;4120575;28;20058;-78
2021/11/14 09:01:10;;;;;;;57.22;29.35;;;9.80;99.90;;;;;;4123556;28;20085;-77
2021/11/14 09:03:11;;;;;;;57.88;30.60;;;9.70;99.90;;;;;;4118492;28;20105;-77
2021/11/14 09:05:11;;;;;;;56.03;30.35;;;9.80;99.90;;;;;;4121322;28;20046;-77
2021/11/14 09:07:12;;;;;;;45.22;25.92;;;9.80;99.90;;;;;;4122876;28;20033;-77
2021/11/14 09:09:13;;;;;;;50.30;28.52;;;9.80;99.90;;;;;;4126550;28;20126;-78
2021/11/14 09:11:14;;;;;;;52.47;28.70;;;9.90;99.90;;;;;;4125856;28;20129;-78
2021/11/14 09:13:15;;;;;;;61.35;31.27;;;9.90;99.90;;;;;;4120407;28;20105;-76
2021/11/14 09:15:18;;;;;;;57.35;30.27;;;9.80;99.90;;;;;;4124719;28;20070;-78
2021/11/14 09:17:18;;;;;;;53.03;28.83;;;9.80;99.90;;;;;;4125416;28;20049;-78
2021/11/14 09:19:21;;;;;;;55.15;30.02;;;9.80;99.90;;;;;;4125890;28;20030;-77
2021/11/14 09:21:22;;;;;;;51.67;29.95;;;9.90;99.90;;;;;;4123486;28;20074;-77
2021/11/14 09:23:23;;;;;;;57.25;31.38;;;9.90;99.90;;;;;;4126239;28;20073;-77
2021/11/14 09:25:25;;;;;;;57.70;32.88;;;10.00;99.90;;;;;;4129088;28;20040;-77
2021/11/14 09:27:26;;;;;;;57.88;31.25;;;10.00;99.90;;;;;;4123596;28;20118;-77
2021/11/14 09:29:27;;;;;;;56.53;32.63;;;10.00;99.90;;;;;;4127163;28;20494;-77
2021/11/14 09:31:28;;;;;;;58.20;32.60;;;10.00;99.90;;;;;;4129416;28;20034;-77
2021/11/14 09:33:28;;;;;;;58.03;31.50;;;10.10;99.90;;;;;;4130717;28;20042;-79
2021/11/14 09:35:29;;;;;;;57.38;33.45;;;10.10;99.90;;;;;;4130084;28;20041;-79
2021/11/14 09:37:30;;;;;;;56.03;32.95;;;10.10;99.90;;;;;;4125546;28;20038;-78
2021/11/14 09:39:30;;;;;;;57.75;33.75;;;10.00;99.90;;;;;;4125139;28;20039;-78
2021/11/14 09:41:32;;;;;;;57.33;33.65;;;10.00;99.90;;;;;;4127113;28;20398;-78
2021/11/14 09:43:34;;;;;;;56.50;33.40;;;10.00;99.90;;;;;;4144205;28;20192;-78
2021/11/14 09:45:36;;;;;;;59.25;32.40;;;10.00;99.90;;;;;;4125481;28;20059;-78
2021/11/14 09:47:38;;;;;;;58.80;31.73;;;10.10;99.90;;;;;;4143444;28;20133;-77
2021/11/14 09:49:39;;;;;;;62.13;34.07;;;10.10;99.90;;;;;;4129668;28;20286;-78
2021/11/14 09:51:41;;;;;;;54.85;31.98;;;10.10;99.90;;;;;;4121074;28;20787;-78
2021/11/14 09:53:43;;;;;;;57.08;32.72;;;10.10;99.90;;;;;;4128931;28;20435;-78
2021/11/14 09:55:43;;;;;;;56.70;30.90;;;10.10;99.90;;;;;;4144023;28;20045;-78
2021/11/14 09:57:45;;;;;;;53.38;31.40;;;10.10;99.90;;;;;;4144839;28;20030;-79
2021/11/14 09:59:45;;;;;;;52.78;30.10;;;10.10;99.90;;;;;;4129299;28;20619;-78
2021/11/14 10:01:51;;;;;;;50.33;30.17;;;10.10;99.90;;;;;;4131027;28;20031;-78
2021/11/14 10:03:54;;;;;;;50.65;30.50;;;10.10;99.90;;;;;;4128744;28;20038;-78
2021/11/14 10:05:54;;;;;;;56.72;30.92;;;10.10;99.90;;;;;;4128373;28;20642;-78
2021/11/14 10:07:57;;;;;;;53.47;30.92;;;10.10;99.90;;;;;;4128147;28;20129;-78
2021/11/14 10:09:59;;;;;;;51.13;30.50;;;10.20;99.90;;;;;;4126692;28;20089;-78
2021/11/14 10:12:11;;;;;;;52.65;30.17;;;10.10;99.90;;;;;;4119122;28;20038;-78
2021/11/14 10:14:22;;;;;;;54.70;30.00;;;10.10;99.90;;;;;;4125074;28;20038;-78
2021/11/14 10:16:26;;;;;;;57.30;32.28;;;10.10;99.90;;;;;;4125152;28;20030;-78
2021/11/14 10:18:28;;;;;;;57.25;31.65;;;10.10;99.90;;;;;;4108808;28;20394;-78
2021/11/14 10:20:32;;;;;;;46.53;29.02;;;10.10;99.90;;;;;;4129175;28;20033;-78